createdAt,value
2022-08-27T00:02:19.395Z,14.80
2022-08-27T00:05:20.347Z,14.80
2022-08-27T00:08:24.323Z,14.80
2022-08-27T00:11:26.290Z,14.70
2022-08-27T00:14:28.447Z,14.70
2022-08-27T00:17:29.277Z,14.50
2022-08-27T00:20:34.285Z,14.40
2022-08-27T00:23:35.335Z,14.40
2022-08-27T00:26:40.152Z,14.30
2022-08-27T00:29:43.299Z,14.30
2022-08-27T00:32:45.469Z,14.20
2022-08-27T00:35:46.446Z,14.10
2022-08-27T00:38:49.304Z,14.10
2022-08-27T00:41:56.287Z,14.10
2022-08-27T00:44:57.362Z,14.00
2022-08-27T00:48:07.367Z,14.00
2022-08-27T00:51:09.420Z,14.00
2022-08-27T00:54:12.689Z,13.90
2022-08-27T00:57:20.485Z,13.80
2022-08-27T01:00:25.384Z,13.80
2022-08-27T01:03:27.398Z,13.70
2022-08-27T01:06:30.381Z,13.70
2022-08-27T01:09:31.301Z,13.70
2022-08-27T01:12:33.503Z,13.60
2022-08-27T01:15:37.392Z,13.50
2022-08-27T01:18:46.381Z,13.40
2022-08-27T01:22:10.467Z,13.40
2022-08-27T01:28:50.401Z,13.30
2022-08-27T01:31:51.452Z,13.20
2022-08-27T01:34:52.474Z,13.10
2022-08-27T01:37:57.173Z,13.10
2022-08-27T01:40:59.397Z,13.00
2022-08-27T01:44:02.422Z,13.00
2022-08-27T01:47:03.381Z,13.00
2022-08-27T01:50:05.367Z,12.90
2022-08-27T01:53:08.408Z,12.90
2022-08-27T01:56:10.462Z,12.80
2022-08-27T01:59:11.358Z,12.70
2022-08-27T02:02:12.456Z,12.60
2022-08-27T02:05:13.412Z,12.60
2022-08-27T02:08:14.372Z,12.50
2022-08-27T02:11:16.344Z,12.40
2022-08-27T02:14:17.413Z,12.40
2022-08-27T02:17:19.456Z,12.40
2022-08-27T02:20:23.520Z,12.30
2022-08-27T02:23:29.362Z,12.30
2022-08-27T02:26:30.417Z,12.30
2022-08-27T02:29:31.408Z,12.20
2022-08-27T02:32:32.566Z,12.20
2022-08-27T02:35:36.525Z,12.10
2022-08-27T02:38:37.419Z,12.10
2022-08-27T02:41:38.445Z,12.10
2022-08-27T02:44:39.374Z,12.10
2022-08-27T02:47:33.556Z,12.10
2022-08-27T02:50:28.432Z,12.10
2022-08-27T02:53:29.389Z,12.20
2022-08-27T02:56:30.386Z,12.30
2022-08-27T02:59:32.433Z,12.40
2022-08-27T03:02:34.522Z,12.40
2022-08-27T03:05:36.369Z,12.40
2022-08-27T03:08:53.047Z,12.40
2022-08-27T03:11:55.363Z,12.40
2022-08-27T03:14:56.451Z,12.30
2022-08-27T03:18:15.392Z,12.30
2022-08-27T03:21:16.448Z,12.30
2022-08-27T03:24:18.412Z,12.20
2022-08-27T03:27:22.395Z,12.10
2022-08-27T03:30:28.384Z,12.10
2022-08-27T03:33:29.458Z,12.10
2022-08-27T03:36:30.400Z,11.90
2022-08-27T03:39:31.409Z,11.80
2022-08-27T03:42:32.409Z,11.80
2022-08-27T03:46:00.251Z,11.70
2022-08-27T03:48:54.421Z,11.60
2022-08-27T03:51:58.448Z,11.50
2022-08-27T03:54:59.467Z,11.40
2022-08-27T03:58:00.557Z,11.40
2022-08-27T04:01:01.623Z,11.30
2022-08-27T04:03:55.403Z,11.30
2022-08-27T04:06:57.868Z,11.30
2022-08-27T04:09:59.475Z,11.20
2022-08-27T04:13:00.480Z,11.10
2022-08-27T04:16:03.562Z,11.10
2022-08-27T04:19:04.531Z,11.10
2022-08-27T04:22:05.444Z,11.10
2022-08-27T04:25:06.423Z,11.00
2022-08-27T04:28:12.553Z,11.00
2022-08-27T04:31:16.555Z,11.00
2022-08-27T04:34:17.436Z,11.00
2022-08-27T04:37:23.359Z,10.90
2022-08-27T04:40:25.470Z,10.90
2022-08-27T04:43:26.528Z,10.80
2022-08-27T04:46:27.504Z,10.70
2022-08-27T04:49:29.424Z,10.80
2022-08-27T04:52:31.453Z,10.70
2022-08-27T04:55:32.439Z,10.60
2022-08-27T04:58:34.470Z,10.50
2022-08-27T05:01:39.485Z,10.50
2022-08-27T05:04:40.440Z,10.50
2022-08-27T05:07:41.453Z,10.50
2022-08-27T05:10:44.453Z,10.60
2022-08-27T05:13:45.453Z,10.60
2022-08-27T05:16:46.437Z,10.70
2022-08-27T05:19:47.498Z,10.60
2022-08-27T05:22:48.621Z,10.60
2022-08-27T05:25:58.457Z,10.70
2022-08-27T05:28:59.604Z,10.70
2022-08-27T05:32:00.520Z,10.60
2022-08-27T05:35:01.447Z,10.60
2022-08-27T05:38:02.471Z,10.70
2022-08-27T05:41:04.530Z,10.70
2022-08-27T05:44:24.100Z,10.70
2022-08-27T05:47:27.464Z,10.80
2022-08-27T05:50:28.522Z,10.80
2022-08-27T05:53:30.517Z,10.80
2022-08-27T05:56:35.900Z,10.90
2022-08-27T05:59:54.520Z,10.90
2022-08-27T06:02:55.529Z,11.10
2022-08-27T06:05:56.535Z,11.20
2022-08-27T06:08:57.516Z,11.30
2022-08-27T06:11:58.485Z,11.50
2022-08-27T06:14:59.550Z,11.70
2022-08-27T06:18:00.493Z,11.80
2022-08-27T06:21:01.489Z,11.90
2022-08-27T06:24:02.548Z,12.10
2022-08-27T06:27:04.519Z,12.30
2022-08-27T06:30:05.513Z,12.50
2022-08-27T06:33:06.486Z,12.70
2022-08-27T06:36:07.667Z,12.80
2022-08-27T06:39:09.645Z,13.10
2022-08-27T06:42:11.711Z,13.40
2022-08-27T06:45:18.493Z,13.80
2022-08-27T06:48:19.600Z,14.30
2022-08-27T06:51:23.500Z,14.70
2022-08-27T06:54:26.494Z,15.00
2022-08-27T06:57:27.508Z,15.30
2022-08-27T07:00:28.494Z,15.60
2022-08-27T07:03:29.573Z,15.80
2022-08-27T07:06:31.498Z,16.20
2022-08-27T07:09:32.660Z,16.50
2022-08-27T07:12:33.582Z,16.70
2022-08-27T07:15:35.614Z,16.90
2022-08-27T07:18:38.587Z,17.10
2022-08-27T07:21:42.533Z,17.30
2022-08-27T07:24:44.671Z,17.40
2022-08-27T07:27:45.540Z,17.70
2022-08-27T07:30:46.627Z,17.90
2022-08-27T07:33:52.320Z,18.10
2022-08-27T07:36:53.524Z,18.30
2022-08-27T07:39:54.591Z,18.40
2022-08-27T07:43:14.549Z,18.60
2022-08-27T07:46:15.660Z,18.70
2022-08-27T07:49:16.547Z,18.80
2022-08-27T07:52:17.537Z,18.70
2022-08-27T07:55:19.568Z,18.70
2022-08-27T07:58:20.748Z,18.70
2022-08-27T08:01:22.764Z,18.50
2022-08-27T08:04:23.719Z,18.60
2022-08-27T08:07:25.620Z,18.60
2022-08-27T08:10:33.526Z,18.70
2022-08-27T08:13:36.575Z,18.70
2022-08-27T08:16:38.640Z,18.80
2022-08-27T08:19:40.744Z,19.10
2022-08-27T08:22:41.620Z,19.30
2022-08-27T08:25:43.633Z,19.50
2022-08-27T08:28:44.641Z,19.30
2022-08-27T08:31:46.861Z,19.20
2022-08-27T08:34:50.912Z,19.30
2022-08-27T08:37:51.625Z,19.30
2022-08-27T08:41:01.588Z,19.30
2022-08-27T08:44:05.686Z,19.50
2022-08-27T08:47:25.677Z,19.60
2022-08-27T08:50:25.762Z,19.60
2022-08-27T08:53:34.656Z,19.50
2022-08-27T08:56:54.373Z,19.50
2022-08-27T09:00:01.653Z,19.50
2022-08-27T09:03:06.600Z,19.60
2022-08-27T09:06:21.662Z,19.90
2022-08-27T09:09:35.600Z,20.40
2022-08-27T09:12:42.618Z,20.60
2022-08-27T09:15:47.671Z,20.60
2022-08-27T09:18:53.663Z,20.50
2022-08-27T09:21:57.615Z,20.40
2022-08-27T09:25:52.783Z,20.40
2022-08-27T09:29:12.603Z,20.60
2022-08-27T09:32:22.702Z,20.50
2022-08-27T09:35:25.698Z,20.50
2022-08-27T09:38:40.736Z,20.80
2022-08-27T09:41:48.701Z,21.00
2022-08-27T09:44:59.702Z,21.00
2022-08-27T09:48:06.724Z,20.80
2022-08-27T09:51:14.743Z,20.80
2022-08-27T09:54:24.681Z,20.80
2022-08-27T09:57:30.840Z,20.80
2022-08-27T10:00:31.628Z,20.50
2022-08-27T10:03:35.790Z,20.40
2022-08-27T10:06:44.623Z,20.40
2022-08-27T10:09:51.621Z,20.50
2022-08-27T10:13:10.500Z,20.70
2022-08-27T10:16:30.738Z,20.90
2022-08-27T10:19:53.737Z,21.10
2022-08-27T10:23:12.682Z,21.20
2022-08-27T10:26:54.715Z,21.40
2022-08-27T10:30:03.739Z,21.70
2022-08-27T10:33:13.671Z,22.00
2022-08-27T10:36:28.840Z,22.20
2022-08-27T10:39:44.826Z,22.30
2022-08-27T10:43:02.750Z,22.30
2022-08-27T10:46:14.746Z,22.30
2022-08-27T10:49:34.683Z,22.30
2022-08-27T10:52:44.931Z,22.30
2022-08-27T10:55:46.803Z,22.30
2022-08-27T10:59:22.730Z,22.30
2022-08-27T11:02:29.811Z,22.00
2022-08-27T11:05:39.719Z,21.60
2022-08-27T11:08:56.740Z,21.60
2022-08-27T11:12:14.842Z,21.80
2022-08-27T11:15:26.705Z,22.10
2022-08-27T11:19:02.682Z,22.40
2022-08-27T11:22:26.463Z,22.90
2022-08-27T11:25:27.744Z,23.40
2022-08-27T11:28:30.043Z,23.80
2022-08-27T11:31:56.808Z,23.90
2022-08-27T11:35:10.771Z,24.00
2022-08-27T11:38:21.744Z,23.80
2022-08-27T11:41:25.771Z,23.70
2022-08-27T11:44:29.747Z,23.90
2022-08-27T11:47:38.776Z,23.90
2022-08-27T11:50:41.710Z,24.10
2022-08-27T11:53:52.860Z,24.30
2022-08-27T11:56:56.783Z,24.80
2022-08-27T11:59:57.753Z,24.90
2022-08-27T12:03:09.832Z,24.80
2022-08-27T12:06:10.716Z,24.80
2022-08-27T12:09:27.770Z,24.90
2022-08-27T12:13:14.766Z,25.00
2022-08-27T12:16:40.894Z,25.20
2022-08-27T12:20:12.804Z,25.20
2022-08-27T12:23:40.785Z,24.90
2022-08-27T12:26:49.792Z,24.70
2022-08-27T12:30:10.811Z,24.60
2022-08-27T12:33:17.799Z,24.60
2022-08-27T12:36:28.129Z,24.80
2022-08-27T12:39:32.795Z,24.90
2022-08-27T12:42:35.739Z,24.60
2022-08-27T12:45:38.731Z,24.30
2022-08-27T12:48:54.811Z,24.00
2022-08-27T12:51:58.797Z,24.10
2022-08-27T12:55:23.813Z,24.30
2022-08-27T12:58:56.739Z,24.30
2022-08-27T13:02:16.811Z,24.30
2022-08-27T13:05:19.813Z,24.30
2022-08-27T13:08:35.829Z,24.30
2022-08-27T13:11:40.832Z,24.10
2022-08-27T13:14:57.051Z,24.00
2022-08-27T13:18:06.889Z,24.10
2022-08-27T13:21:20.822Z,24.40
2022-08-27T13:24:23.773Z,24.80
2022-08-27T13:27:24.792Z,24.80
2022-08-27T13:30:35.192Z,24.70
2022-08-27T13:33:40.838Z,24.60
2022-08-27T13:37:04.856Z,24.40
2022-08-27T13:40:10.834Z,24.40
2022-08-27T13:43:26.843Z,24.50
2022-08-27T13:46:32.899Z,24.30
2022-08-27T13:49:40.495Z,23.90
2022-08-27T13:53:11.926Z,23.70
2022-08-27T13:56:12.945Z,23.50
2022-08-27T13:59:31.836Z,23.40
2022-08-27T14:02:40.018Z,23.30
2022-08-27T14:05:43.837Z,23.10
2022-08-27T14:08:48.806Z,23.10
2022-08-27T14:11:51.023Z,23.00
2022-08-27T14:15:00.811Z,22.90
2022-08-27T14:18:02.877Z,22.90
2022-08-27T14:21:03.826Z,22.80
2022-08-27T14:24:05.893Z,22.80
2022-08-27T14:27:19.832Z,22.90
2022-08-27T14:30:28.972Z,22.90
2022-08-27T14:33:38.997Z,23.00
2022-08-27T14:36:42.983Z,23.10
2022-08-27T14:39:43.839Z,23.10
2022-08-27T14:42:45.848Z,23.20
2022-08-27T14:45:47.877Z,23.20
2022-08-27T14:48:51.729Z,23.10
2022-08-27T14:51:55.845Z,23.10
2022-08-27T14:54:57.877Z,23.20
2022-08-27T14:57:58.889Z,23.30
2022-08-27T15:01:02.911Z,23.40
2022-08-27T15:04:04.943Z,23.60
2022-08-27T15:07:05.949Z,23.60
2022-08-27T15:10:06.943Z,23.70
2022-08-27T15:13:07.912Z,23.90
2022-08-27T15:16:08.975Z,24.30
2022-08-27T15:19:09.921Z,24.80
2022-08-27T15:22:22.942Z,25.10
2022-08-27T15:25:24.982Z,25.30
2022-08-27T15:28:25.921Z,25.70
2022-08-27T15:31:26.942Z,25.90
2022-08-27T15:34:27.908Z,26.00
2022-08-27T15:37:28.930Z,25.90
2022-08-27T15:40:33.987Z,26.10
2022-08-27T15:43:35.012Z,26.20
2022-08-27T15:46:36.131Z,26.20
2022-08-27T15:49:41.973Z,26.20
2022-08-27T15:52:42.934Z,26.00
2022-08-27T15:55:47.947Z,25.60
2022-08-27T15:58:50.939Z,25.20
2022-08-27T16:01:53.019Z,24.80
2022-08-27T16:04:53.952Z,24.60
2022-08-27T16:07:55.885Z,24.30
2022-08-27T16:10:56.910Z,24.20
2022-08-27T16:13:57.943Z,24.00
2022-08-27T16:16:59.972Z,23.80
2022-08-27T16:20:00.953Z,23.40
2022-08-27T16:23:01.977Z,23.10
2022-08-27T16:26:02.953Z,22.80
2022-08-27T16:29:03.980Z,22.70
2022-08-27T16:32:04.913Z,22.60
2022-08-27T16:35:06.943Z,22.50
2022-08-27T16:38:08.029Z,22.30
2022-08-27T16:41:09.937Z,22.10
2022-08-27T16:44:10.924Z,22.00
2022-08-27T16:47:11.984Z,21.90
2022-08-27T16:50:30.925Z,21.80
2022-08-27T16:53:35.022Z,21.80
2022-08-27T16:56:37.916Z,21.80
2022-08-27T16:59:39.002Z,21.70
2022-08-27T17:02:46.065Z,21.70
2022-08-27T17:05:46.942Z,21.70
2022-08-27T17:08:50.999Z,21.80
2022-08-27T17:11:55.009Z,21.80
2022-08-27T17:14:56.983Z,21.80
2022-08-27T17:17:59.004Z,21.70
2022-08-27T17:21:01.014Z,21.70
2022-08-27T17:24:10.926Z,21.60
2022-08-27T17:27:13.029Z,21.60
2022-08-27T17:30:13.958Z,21.60
2022-08-27T17:33:15.021Z,21.50
2022-08-27T17:36:15.976Z,21.50
2022-08-27T17:39:16.984Z,21.50
2022-08-27T17:42:19.018Z,21.50
2022-08-27T17:45:20.993Z,21.40
2022-08-27T17:48:26.442Z,21.40
2022-08-27T17:51:27.116Z,21.40
2022-08-27T17:54:49.070Z,21.40
2022-08-27T17:57:50.013Z,21.40
2022-08-27T18:00:52.996Z,21.30
2022-08-27T18:03:54.087Z,21.30
2022-08-27T18:06:54.996Z,21.10
2022-08-27T18:09:56.077Z,21.00
2022-08-27T18:12:58.029Z,20.90
2022-08-27T18:15:59.033Z,20.80
2022-08-27T18:19:01.065Z,20.80
2022-08-27T18:22:07.054Z,20.70
2022-08-27T18:25:08.119Z,20.70
2022-08-27T18:28:12.281Z,20.80
2022-08-27T18:31:15.133Z,20.80
2022-08-27T18:34:20.558Z,20.90
2022-08-27T18:37:22.072Z,21.10
2022-08-27T18:40:25.123Z,21.20
2022-08-27T18:43:28.076Z,21.30
2022-08-27T18:46:30.086Z,21.30
2022-08-27T18:49:32.404Z,21.20
2022-08-27T18:52:35.031Z,21.00
2022-08-27T18:55:39.163Z,20.90
2022-08-27T18:58:40.098Z,20.80
2022-08-27T19:01:41.325Z,20.70
2022-08-27T19:04:46.108Z,20.50
2022-08-27T19:07:47.080Z,20.30
2022-08-27T19:10:49.157Z,20.20
2022-08-27T19:13:50.432Z,20.00
2022-08-27T19:16:57.188Z,19.90
2022-08-27T19:19:58.133Z,19.80
2022-08-27T19:23:01.100Z,19.60
2022-08-27T19:26:03.061Z,19.50
2022-08-27T19:29:06.112Z,19.30
2022-08-27T19:32:07.116Z,19.20
2022-08-27T19:35:08.245Z,19.00
2022-08-27T19:38:09.079Z,18.90
2022-08-27T19:41:10.217Z,18.70
2022-08-27T19:44:11.139Z,18.60
2022-08-27T19:47:12.158Z,18.40
2022-08-27T19:50:13.092Z,18.30
2022-08-27T19:53:14.138Z,18.30
2022-08-27T19:56:17.078Z,18.20
2022-08-27T19:59:21.761Z,18.10
2022-08-27T20:02:24.250Z,18.00
2022-08-27T20:05:25.209Z,17.90
2022-08-27T20:08:26.215Z,17.80
2022-08-27T20:11:27.129Z,17.70
2022-08-27T20:14:28.084Z,17.70
2022-08-27T20:17:31.196Z,17.70
2022-08-27T20:20:36.089Z,17.60
2022-08-27T20:23:37.144Z,17.60
2022-08-27T20:26:39.216Z,17.60
2022-08-27T20:29:40.170Z,17.60
2022-08-27T20:32:42.100Z,17.60
2022-08-27T20:35:45.315Z,17.60
2022-08-27T20:38:46.192Z,17.60
2022-08-27T20:41:47.103Z,17.60
2022-08-27T20:44:49.141Z,17.60
2022-08-27T20:47:51.144Z,17.60
2022-08-27T20:50:45.142Z,17.50
2022-08-27T20:53:46.176Z,17.50
2022-08-27T20:56:52.430Z,17.50
2022-08-27T21:00:12.264Z,17.40
2022-08-27T21:03:13.112Z,17.40
2022-08-27T21:06:14.350Z,17.40
2022-08-27T21:09:15.156Z,17.40
2022-08-27T21:12:19.185Z,17.40
2022-08-27T21:15:25.221Z,17.30
2022-08-27T21:18:30.123Z,17.30
2022-08-27T21:21:31.210Z,17.30
2022-08-27T21:24:33.270Z,17.10
2022-08-27T21:27:35.179Z,17.10
2022-08-27T21:30:37.278Z,16.90
2022-08-27T21:33:39.522Z,16.80
2022-08-27T21:36:40.140Z,16.70
2022-08-27T21:39:41.217Z,16.60
2022-08-27T21:42:42.183Z,16.50
2022-08-27T21:45:43.200Z,16.30
2022-08-27T21:48:46.197Z,16.20
2022-08-27T21:51:47.191Z,16.10
2022-08-27T21:54:52.152Z,16.00
2022-08-27T21:57:53.235Z,15.80
2022-08-27T22:01:00.280Z,15.80
2022-08-27T22:04:04.875Z,15.60
2022-08-27T22:07:05.226Z,15.50
2022-08-27T22:10:06.216Z,15.40
2022-08-27T22:13:07.240Z,15.30
2022-08-27T22:16:08.213Z,15.10
2022-08-27T22:19:09.236Z,15.00
2022-08-27T22:22:11.162Z,14.90
2022-08-27T22:25:12.199Z,14.80
2022-08-27T22:28:13.233Z,14.60
2022-08-27T22:31:14.280Z,14.60
2022-08-27T22:34:15.185Z,14.50
2022-08-27T22:37:17.320Z,14.50
2022-08-27T22:40:20.374Z,14.40
2022-08-27T22:43:21.222Z,14.40
2022-08-27T22:46:22.196Z,14.40
2022-08-27T22:49:23.156Z,14.30
2022-08-27T22:52:28.031Z,14.30
2022-08-27T22:55:31.234Z,14.10
2022-08-27T22:58:32.249Z,14.10
2022-08-27T23:01:35.194Z,14.20
2022-08-27T23:04:53.960Z,14.20
2022-08-27T23:07:55.208Z,14.20
2022-08-27T23:10:58.221Z,14.30
2022-08-27T23:13:59.193Z,14.30
2022-08-27T23:17:00.170Z,14.30
2022-08-27T23:20:02.189Z,14.30
2022-08-27T23:23:04.281Z,14.40
2022-08-27T23:26:24.339Z,14.40
2022-08-27T23:29:25.259Z,14.50
2022-08-27T23:32:26.288Z,14.40
2022-08-27T23:35:29.181Z,14.40
2022-08-27T23:38:31.268Z,14.40
2022-08-27T23:41:32.204Z,14.40
2022-08-27T23:44:35.210Z,14.40
2022-08-27T23:47:36.261Z,14.50
2022-08-27T23:50:37.209Z,14.60
2022-08-27T23:53:38.257Z,14.70
2022-08-27T23:56:39.205Z,14.70
2022-08-27T23:59:40.208Z,14.80
